Time;durP1;ratioP1;P1;durP2;ratioP2;P2;SDS_P1;SDS_P2;PMS_P1;PMS_P2;Temp;Humidity;BMP_temperature;BMP_pressure;BME280_temperature;BME280_humidity;BME280_pressure;Samples;Min_cycle;Max_cycle;Signal;HPM_P1;HPM_P2
2021/11/25 00:01:52;;;;;;;11.70;7.53;;;4.10;99.90;;;;;;5014614;28;20218;-60
2021/11/25 00:04:20;;;;;;;8.67;6.83;;;4.10;99.90;;;;;;5014700;28;20783;-61
2021/11/25 00:06:47;;;;;;;9.70;6.93;;;4.20;99.90;;;;;;5014412;28;20675;-61
2021/11/25 00:09:13;;;;;;;10.67;7.03;;;4.20;1.00;;;;;;5014799;28;20217;-61
2021/11/25 00:11:40;;;;;;;10.50;7.30;;;4.20;1.00;;;;;;5014625;28;20238;-59
2021/11/25 00:14:07;;;;;;;9.73;7.47;;;4.20;99.90;;;;;;5014629;28;20212;-58
2021/11/25 00:16:34;;;;;;;10.70;7.33;;;4.30;99.90;;;;;;5014255;28;20303;-61
2021/11/25 00:19:00;;;;;;;12.17;7.70;;;4.20;99.90;;;;;;5014185;28;20238;-60
2021/11/25 00:21:28;;;;;;;11.77;7.60;;;4.20;99.90;;;;;;5014392;28;20216;-60
2021/11/25 00:23:55;;;;;;;9.80;7.20;;;4.10;99.90;;;;;;5014403;28;20205;-59
2021/11/25 00:26:22;;;;;;;9.00;7.33;;;4.10;99.90;;;;;;5013934;28;20287;-59
2021/11/25 00:28:48;;;;;;;10.27;7.57;;;4.20;99.90;;;;;;5014303;28;20203;-58
2021/11/25 00:31:15;;;;;;;10.70;7.40;;;4.10;99.90;;;;;;5014307;28;20214;-60
2021/11/25 00:33:42;;;;;;;10.23;7.47;;;4.10;99.90;;;;;;5014433;28;20605;-60
2021/11/25 00:36:08;;;;;;;10.87;7.70;;;4.10;99.90;;;;;;5013911;28;20360;-60
2021/11/25 00:38:36;;;;;;;9.93;7.63;;;4.00;99.90;;;;;;5014185;28;20577;-61
2021/11/25 00:41:03;;;;;;;10.40;7.20;;;4.00;99.90;;;;;;5014263;28;20205;-59
2021/11/25 00:43:30;;;;;;;13.13;7.70;;;4.00;99.90;;;;;;5014097;28;20609;-60
2021/11/25 00:45:57;;;;;;;10.07;7.03;;;4.00;99.90;;;;;;5013761;28;20240;-59
2021/11/25 00:48:24;;;;;;;10.03;7.63;;;3.90;99.90;;;;;;5014232;28;20214;-59
2021/11/25 00:50:51;;;;;;;10.67;7.33;;;4.00;99.90;;;;;;5013992;28;20267;-59
2021/11/25 00:53:17;;;;;;;9.33;7.63;;;4.00;99.90;;;;;;5013966;28;20561;-60
2021/11/25 00:55:45;;;;;;;9.63;7.10;;;4.00;99.90;;;;;;5013565;28;20617;-59
2021/11/25 00:58:12;;;;;;;9.60;6.83;;;3.90;99.90;;;;;;5013529;28;20225;-60
2021/11/25 01:00:39;;;;;;;9.07;7.00;;;4.00;99.90;;;;;;5013798;28;20211;-59
2021/11/25 01:03:06;;;;;;;10.77;7.23;;;3.90;99.90;;;;;;5014008;28;20236;-61
2021/11/25 01:05:33;;;;;;;11.40;7.17;;;3.90;99.90;;;;;;5013518;28;20231;-61
2021/11/25 01:08:00;;;;;;;11.10;7.57;;;4.00;99.90;;;;;;5013326;28;20587;-61
2021/11/25 01:10:27;;;;;;;9.33;6.83;;;3.90;99.90;;;;;;5013751;28;20209;-60
2021/11/25 01:12:57;;;;;;;9.40;7.13;;;3.90;99.90;;;;;;5013606;28;20208;-57
2021/11/25 01:15:30;;;;;;;10.10;7.33;;;3.90;99.90;;;;;;5013239;28;20232;-59
2021/11/25 01:17:58;;;;;;;9.67;7.67;;;4.00;99.90;;;;;;5013503;28;20714;-59
2021/11/25 01:20:24;;;;;;;9.63;7.37;;;4.00;99.90;;;;;;5013433;28;20214;-60
2021/11/25 01:22:51;;;;;;;9.30;7.37;;;4.10;99.90;;;;;;5013650;28;20213;-59
2021/11/25 01:25:18;;;;;;;9.83;7.43;;;4.20;99.90;;;;;;5012704;28;20770;-61
2021/11/25 01:27:45;;;;;;;9.33;7.80;;;4.10;99.90;;;;;;5013532;28;20200;-61
2021/11/25 01:30:13;;;;;;;11.87;7.50;;;4.20;99.90;;;;;;5013437;28;20640;-60
2021/11/25 01:32:40;;;;;;;9.57;7.27;;;4.10;99.90;;;;;;5012793;28;20207;-61
2021/11/25 01:35:09;;;;;;;10.97;7.83;;;4.10;99.90;;;;;;5012810;28;20227;-60
2021/11/25 01:37:36;;;;;;;11.43;7.30;;;4.10;99.90;;;;;;5012522;28;20225;-58
2021/11/25 01:40:05;;;;;;;13.27;7.70;;;4.10;99.90;;;;;;5013123;28;20263;-60
2021/11/25 01:42:32;;;;;;;10.77;7.93;;;4.10;99.90;;;;;;5013125;28;20204;-59
2021/11/25 01:44:59;;;;;;;10.17;7.47;;;4.10;99.90;;;;;;5012795;28;20229;-58
2021/11/25 01:47:27;;;;;;;8.20;7.07;;;4.10;99.90;;;;;;5012894;28;20212;-56
2021/11/25 01:49:54;;;;;;;13.17;8.00;;;4.00;99.90;;;;;;5013060;28;20262;-60
2021/11/25 01:52:20;;;;;;;9.93;7.57;;;4.00;99.90;;;;;;5012725;28;20213;-59
2021/11/25 01:54:47;;;;;;;9.60;7.63;;;3.90;99.90;;;;;;5012782;28;20234;-60
2021/11/25 01:57:14;;;;;;;11.03;8.23;;;4.00;99.90;;;;;;5012988;28;20231;-59
2021/11/25 01:59:41;;;;;;;10.93;7.70;;;4.00;99.90;;;;;;5012620;28;20746;-60
2021/11/25 02:02:09;;;;;;;9.73;7.30;;;4.00;99.90;;;;;;5012796;28;20560;-60
2021/11/25 02:04:37;;;;;;;8.73;7.17;;;4.00;99.90;;;;;;5012141;28;20231;-60
2021/11/25 02:07:04;;;;;;;9.43;7.80;;;3.90;99.90;;;;;;5012353;28;20215;-59
2021/11/25 02:09:31;;;;;;;10.63;7.63;;;3.90;99.90;;;;;;5012445;28;20755;-61
2021/11/25 02:11:58;;;;;;;10.43;7.57;;;3.90;99.90;;;;;;5012497;28;20214;-60
2021/11/25 02:14:25;;;;;;;10.63;7.47;;;3.90;99.90;;;;;;5012628;28;20209;-60
2021/11/25 02:16:52;;;;;;;10.17;7.33;;;4.00;99.90;;;;;;5011857;28;20582;-61
2021/11/25 02:19:20;;;;;;;10.90;7.80;;;4.10;99.90;;;;;;5012369;28;20228;-59
2021/11/25 02:21:48;;;;;;;9.47;7.37;;;4.10;99.90;;;;;;5012408;28;20255;-60
2021/11/25 02:24:15;;;;;;;12.07;7.47;;;4.00;99.90;;;;;;5012326;28;20236;-61
2021/11/25 02:26:42;;;;;;;8.67;7.10;;;4.10;99.90;;;;;;5012248;28;20217;-61
2021/11/25 02:29:09;;;;;;;8.90;6.80;;;4.10;99.90;;;;;;5012259;28;20235;-60
2021/11/25 02:31:35;;;;;;;9.30;6.63;;;4.10;99.90;;;;;;5012100;28;20216;-59
2021/11/25 02:34:02;;;;;;;12.00;7.60;;;4.10;99.90;;;;;;5011993;28;20213;-61
2021/11/25 02:36:29;;;;;;;10.80;7.43;;;4.10;1.00;;;;;;5012008;28;20288;-60
2021/11/25 02:38:58;;;;;;;9.67;7.33;;;4.10;1.00;;;;;;5012041;28;20740;-59
2021/11/25 02:41:25;;;;;;;9.17;7.30;;;4.10;1.00;;;;;;5012218;28;20208;-61
2021/11/25 02:43:53;;;;;;;9.07;6.93;;;4.00;99.90;;;;;;5011588;28;20211;-60
2021/11/25 02:46:20;;;;;;;9.57;7.00;;;4.10;99.90;;;;;;5011624;28;20720;-61
2021/11/25 02:48:51;;;;;;;8.57;6.87;;;4.00;99.90;;;;;;5012049;28;20864;-61
2021/11/25 02:51:20;;;;;;;12.80;7.97;;;4.00;99.90;;;;;;5012295;28;20265;-60
2021/11/25 02:53:48;;;;;;;10.00;8.03;;;3.90;99.90;;;;;;5012079;28;20208;-59
2021/11/25 02:56:18;;;;;;;8.60;7.00;;;3.90;99.90;;;;;;5011684;28;20254;-61
2021/11/25 02:58:47;;;;;;;10.00;7.33;;;3.90;99.90;;;;;;5012040;28;20255;-59
2021/11/25 03:01:17;;;;;;;10.30;7.73;;;3.90;1.00;;;;;;5011791;28;20678;-60
2021/11/25 03:03:44;;;;;;;12.40;7.67;;;4.00;1.00;;;;;;5012246;28;20208;-58
2021/11/25 03:06:11;;;;;;;11.23;8.30;;;3.80;1.00;;;;;;5011332;28;20785;-61
2021/11/25 03:08:38;;;;;;;9.63;7.50;;;3.80;1.00;;;;;;5011977;28;20261;-60
2021/11/25 03:11:07;;;;;;;10.47;8.17;;;3.80;1.00;;;;;;5011976;28;20278;-59
2021/11/25 03:13:37;;;;;;;11.73;7.77;;;3.80;1.00;;;;;;5011802;28;20258;-59
2021/11/25 03:16:06;;;;;;;10.67;7.73;;;3.90;1.00;;;;;;5011478;28;20790;-61
2021/11/25 03:18:32;;;;;;;10.80;8.50;;;3.90;1.00;;;;;;5011613;28;20258;-60
2021/11/25 03:21:00;;;;;;;11.07;8.63;;;4.00;1.00;;;;;;5011926;28;20212;-61
2021/11/25 03:23:29;;;;;;;12.53;8.43;;;4.00;1.00;;;;;;5011627;28;20777;-61
2021/11/25 03:25:57;;;;;;;10.27;8.07;;;4.10;1.00;;;;;;5011390;28;20233;-55
2021/11/25 03:28:24;;;;;;;11.70;8.50;;;4.00;1.00;;;;;;5012697;28;20194;-60
2021/11/25 03:30:54;;;;;;;14.70;8.43;;;4.00;99.90;;;;;;5012141;28;20639;-59
2021/11/25 03:33:22;;;;;;;11.50;8.33;;;4.10;1.00;;;;;;5011715;28;20205;-61
2021/11/25 03:35:49;;;;;;;9.70;8.00;;;4.10;1.00;;;;;;5011148;28;20224;-59
2021/11/25 03:38:16;;;;;;;12.67;8.57;;;4.20;1.00;;;;;;5011984;28;20229;-60
2021/11/25 03:40:43;;;;;;;9.43;7.83;;;4.20;99.90;;;;;;5011501;28;20671;-59
2021/11/25 03:43:10;;;;;;;12.70;9.03;;;4.20;99.90;;;;;;5012415;28;20218;-60
2021/11/25 03:45:37;;;;;;;11.63;8.73;;;4.30;99.90;;;;;;5011218;28;20739;-61
2021/11/25 03:48:06;;;;;;;10.93;8.47;;;4.30;99.90;;;;;;5011526;28;20238;-60
2021/11/25 03:50:33;;;;;;;13.03;8.70;;;4.10;99.90;;;;;;5011430;28;20735;-60
2021/11/25 03:53:00;;;;;;;13.37;8.93;;;4.20;99.90;;;;;;5011426;28;20204;-61
2021/11/25 03:55:27;;;;;;;10.27;7.87;;;4.30;99.90;;;;;;5012780;28;20241;-61
2021/11/25 03:57:54;;;;;;;9.23;7.90;;;4.30;99.90;;;;;;5014995;28;20712;-59
2021/11/25 04:00:22;;;;;;;12.77;8.30;;;4.30;99.90;;;;;;5015072;28;20210;-58
2021/11/25 04:02:51;;;;;;;11.87;8.97;;;4.20;99.90;;;;;;5014819;28;20210;-58
2021/11/25 04:05:19;;;;;;;12.87;7.97;;;4.10;99.90;;;;;;5014519;28;20228;-58
2021/11/25 04:07:46;;;;;;;13.10;8.53;;;4.10;99.90;;;;;;5014652;28;20208;-57
2021/11/25 04:10:14;;;;;;;9.47;8.07;;;4.00;99.90;;;;;;5014835;28;20220;-60
2021/11/25 04:12:41;;;;;;;15.83;8.97;;;4.00;99.90;;;;;;5015182;28;20219;-60
2021/11/25 04:15:09;;;;;;;13.80;8.80;;;4.00;99.90;;;;;;5014771;28;20236;-61
2021/11/25 04:17:36;;;;;;;12.73;8.17;;;3.90;1.00;;;;;;5014735;28;20212;-59
2021/11/25 04:20:03;;;;;;;10.90;8.67;;;3.90;1.00;;;;;;5014675;28;20270;-61
2021/11/25 04:22:31;;;;;;;13.47;8.57;;;3.80;1.00;;;;;;5014633;28;20233;-58
2021/11/25 04:24:57;;;;;;;10.13;7.67;;;4.00;1.00;;;;;;5013944;28;20284;-59
2021/11/25 04:27:24;;;;;;;12.10;9.27;;;4.00;1.00;;;;;;5014646;28;20261;-61
2021/11/25 04:29:58;;;;;;;14.00;9.00;;;4.00;1.00;;;;;;5015021;28;20216;-64
2021/11/25 04:37:56;;;;;;;14.80;9.77;;;4.00;1.00;;;;;;5013988;28;20236;-57
2021/11/25 04:40:22;;;;;;;10.47;8.30;;;4.00;1.00;;;;;;5014147;28;20214;-59
2021/11/25 04:42:49;;;;;;;14.27;9.23;;;4.00;1.00;;;;;;5014088;28;20215;-56
2021/11/25 04:45:16;;;;;;;12.17;9.17;;;4.10;1.00;;;;;;5013813;28;20284;-56
2021/11/25 04:47:43;;;;;;;13.37;9.90;;;4.10;1.00;;;;;;5014944;28;20265;-58
2021/11/25 04:50:09;;;;;;;13.50;9.80;;;3.90;1.00;;;;;;5015332;28;20267;-59
2021/11/25 04:52:36;;;;;;;15.83;10.07;;;3.90;1.00;;;;;;5014301;28;20550;-59
2021/11/25 04:55:05;;;;;;;13.87;10.37;;;3.90;1.00;;;;;;5013496;28;20237;-57
2021/11/25 04:57:32;;;;;;;13.17;9.93;;;4.00;1.00;;;;;;5013831;28;20209;-60
2021/11/25 04:59:58;;;;;;;17.17;10.67;;;3.90;1.00;;;;;;5013565;28;20209;-58
2021/11/25 05:02:25;;;;;;;13.07;10.17;;;3.80;1.00;;;;;;5013855;28;20208;-60
2021/11/25 05:04:51;;;;;;;13.80;10.67;;;3.80;1.00;;;;;;5013613;28;20687;-60
2021/11/25 05:07:18;;;;;;;11.40;9.53;;;3.80;1.00;;;;;;5013372;28;20254;-59
2021/11/25 05:09:45;;;;;;;12.63;9.80;;;3.70;1.00;;;;;;5013684;28;20261;-57
2021/11/25 05:12:13;;;;;;;15.70;11.00;;;3.60;1.00;;;;;;5013418;28;20664;-60
2021/11/25 05:14:39;;;;;;;12.30;9.00;;;3.60;1.00;;;;;;5013369;28;20227;-57
2021/11/25 05:17:06;;;;;;;12.73;9.50;;;3.50;1.00;;;;;;5013536;28;20213;-59
2021/11/25 05:19:33;;;;;;;14.53;10.43;;;3.60;1.00;;;;;;5015723;28;20245;-54
2021/11/25 05:21:59;;;;;;;12.30;9.63;;;3.60;1.00;;;;;;5033008;28;20672;-57
2021/11/25 05:24:26;;;;;;;14.90;9.97;;;3.60;1.00;;;;;;5032664;28;20305;-57
2021/11/25 05:26:53;;;;;;;13.43;10.23;;;3.50;1.00;;;;;;5032494;28;20210;-59
2021/11/25 05:29:21;;;;;;;12.93;9.80;;;3.40;99.90;;;;;;5032830;28;20206;-59
2021/11/25 05:31:48;;;;;;;14.23;11.37;;;3.30;99.90;;;;;;5032978;28;20208;-59
2021/11/25 05:34:16;;;;;;;15.40;11.63;;;3.20;99.90;;;;;;5032719;28;20202;-60
2021/11/25 05:36:43;;;;;;;15.27;10.47;;;3.10;99.90;;;;;;5024999;28;20214;-59
2021/11/25 05:39:10;;;;;;;16.07;11.90;;;3.00;1.00;;;;;;5011215;28;20241;-57
2021/11/25 05:41:38;;;;;;;15.03;11.17;;;2.90;1.00;;;;;;5012155;28;20302;-59
2021/11/25 05:44:05;;;;;;;17.93;12.23;;;2.80;1.00;;;;;;5012996;28;20298;-59
2021/11/25 05:46:33;;;;;;;16.00;12.03;;;2.70;1.00;;;;;;5017199;28;20470;-59
2021/11/25 05:49:00;;;;;;;18.50;12.40;;;2.60;1.00;;;;;;5012613;28;20454;-55
2021/11/25 05:51:26;;;;;;;17.17;11.13;;;2.60;1.00;;;;;;5012722;28;20450;-58
2021/11/25 05:53:53;;;;;;;17.17;11.80;;;2.60;1.00;;;;;;5012640;28;20461;-60
2021/11/25 05:56:20;;;;;;;15.97;11.80;;;2.60;1.00;;;;;;5012722;28;20470;-58
2021/11/25 05:58:46;;;;;;;17.47;12.17;;;2.50;1.00;;;;;;5012798;28;20508;-60
2021/11/25 06:01:13;;;;;;;17.33;12.37;;;2.40;1.00;;;;;;5012582;28;20997;-60
2021/11/25 06:03:41;;;;;;;19.97;13.27;;;2.40;1.00;;;;;;5012543;28;20457;-58
2021/11/25 06:06:08;;;;;;;17.10;13.17;;;2.30;1.00;;;;;;5012099;28;20564;-58
2021/11/25 06:08:34;;;;;;;23.13;13.30;;;2.20;1.00;;;;;;5012015;28;20875;-58
2021/11/25 06:11:02;;;;;;;17.40;12.80;;;2.20;1.00;;;;;;5012516;28;20528;-60
2021/11/25 06:13:29;;;;;;;17.47;12.30;;;2.20;1.00;;;;;;5012633;28;20455;-58
2021/11/25 06:15:56;;;;;;;17.47;13.70;;;2.20;1.00;;;;;;5011919;28;20893;-58
2021/11/25 06:18:22;;;;;;;19.77;13.53;;;2.20;1.00;;;;;;5011336;28;20532;-58
2021/11/25 06:20:50;;;;;;;17.30;13.40;;;2.10;1.00;;;;;;5012140;28;21087;-59
2021/11/25 06:23:17;;;;;;;16.10;12.50;;;2.10;1.00;;;;;;5012062;28;20466;-58
2021/11/25 06:25:44;;;;;;;16.93;12.70;;;2.10;1.00;;;;;;5011650;28;20485;-59
2021/11/25 06:28:11;;;;;;;17.07;12.50;;;2.10;1.00;;;;;;5012143;28;20458;-58
2021/11/25 06:30:38;;;;;;;18.47;13.73;;;2.00;1.00;;;;;;5012087;28;20454;-58
2021/11/25 06:33:05;;;;;;;20.57;14.50;;;2.00;1.00;;;;;;5012244;28;20511;-55
2021/11/25 06:35:32;;;;;;;16.77;12.83;;;2.00;1.00;;;;;;5011662;28;20520;-59
2021/11/25 06:38:01;;;;;;;22.67;13.23;;;1.90;1.00;;;;;;5007340;28;20462;-62
2021/11/25 06:40:30;;;;;;;19.57;13.07;;;1.90;1.00;;;;;;5014165;28;20438;-62
2021/11/25 06:42:59;;;;;;;20.10;12.97;;;1.90;1.00;;;;;;5011484;28;20442;-61
2021/11/25 06:45:27;;;;;;;18.90;13.03;;;1.90;1.00;;;;;;5011416;28;20465;-62
2021/11/25 06:47:54;;;;;;;21.40;13.50;;;1.80;1.00;;;;;;5011354;28;20445;-61
2021/11/25 06:50:23;;;;;;;19.13;13.47;;;1.80;1.00;;;;;;5011258;28;20442;-61
2021/11/25 06:52:51;;;;;;;19.80;14.00;;;1.80;1.00;;;;;;5022317;28;20445;-63
2021/11/25 06:55:19;;;;;;;20.47;13.47;;;1.70;1.00;;;;;;5031010;28;20471;-64
2021/11/25 06:57:50;;;;;;;20.53;14.47;;;1.70;1.00;;;;;;5031789;28;20457;-63
2021/11/25 07:00:19;;;;;;;22.37;15.70;;;1.70;1.00;;;;;;5030834;28;20488;-62
2021/11/25 07:02:46;;;;;;;22.53;15.27;;;1.70;1.00;;;;;;5031174;28;20452;-64
2021/11/25 07:05:13;;;;;;;20.90;14.50;;;1.70;1.00;;;;;;5030865;28;20484;-65
2021/11/25 07:07:40;;;;;;;19.43;14.00;;;1.80;1.00;;;;;;5031532;28;20456;-63
2021/11/25 07:10:09;;;;;;;20.27;13.83;;;1.90;1.00;;;;;;5030889;28;20453;-65
2021/11/25 07:12:39;;;;;;;21.60;14.83;;;2.00;1.00;;;;;;5031272;28;20859;-65
2021/11/25 07:15:07;;;;;;;19.97;14.97;;;2.00;1.00;;;;;;5030614;28;20476;-65
2021/11/25 07:17:33;;;;;;;19.00;13.50;;;2.10;1.00;;;;;;5030876;28;20536;-65
2021/11/25 07:20:01;;;;;;;20.17;13.97;;;2.10;1.00;;;;;;5030678;28;20485;-64
2021/11/25 07:22:29;;;;;;;18.77;13.47;;;2.10;1.00;;;;;;5031272;28;20461;-63
2021/11/25 07:24:55;;;;;;;19.50;14.10;;;2.00;1.00;;;;;;5030486;28;20571;-64
2021/11/25 07:27:22;;;;;;;19.93;14.00;;;2.00;1.00;;;;;;5030915;28;20984;-64
2021/11/25 07:29:51;;;;;;;19.90;14.37;;;2.00;1.00;;;;;;5032890;28;20453;-62
2021/11/25 07:32:18;;;;;;;21.43;14.97;;;2.00;1.00;;;;;;5035066;28;20448;-62
2021/11/25 07:34:45;;;;;;;20.13;14.70;;;2.00;1.00;;;;;;5034261;28;20469;-59
2021/11/25 07:37:12;;;;;;;22.53;16.43;;;2.00;1.00;;;;;;5034706;28;20452;-58
2021/11/25 07:39:38;;;;;;;23.20;15.30;;;2.10;1.00;;;;;;5034643;28;20484;-57
2021/11/25 07:42:06;;;;;;;21.10;15.43;;;2.10;1.00;;;;;;5035000;28;20456;-59
2021/11/25 07:44:32;;;;;;;24.13;14.87;;;2.10;1.00;;;;;;5033929;28;20472;-58
2021/11/25 07:47:00;;;;;;;21.07;15.20;;;2.00;1.00;;;;;;5034403;28;20506;-55
2021/11/25 07:49:27;;;;;;;20.43;14.67;;;2.00;1.00;;;;;;5034150;28;20449;-63
2021/11/25 07:51:59;;;;;;;22.27;14.67;;;2.10;1.00;;;;;;5034370;28;20942;-63
2021/11/25 07:54:26;;;;;;;30.03;17.43;;;2.10;1.00;;;;;;5034526;28;20499;-63
2021/11/25 07:56:52;;;;;;;27.60;17.60;;;2.10;1.00;;;;;;5033824;28;20449;-62
2021/11/25 07:59:19;;;;;;;24.57;16.53;;;2.10;1.00;;;;;;5033866;28;20500;-61
2021/11/25 08:01:46;;;;;;;23.47;16.50;;;2.10;1.00;;;;;;5034204;28;20976;-62
2021/11/25 08:04:14;;;;;;;22.93;17.37;;;2.10;1.00;;;;;;5034012;28;20882;-64
2021/11/25 08:06:40;;;;;;;25.93;17.40;;;2.20;1.00;;;;;;5033836;28;20514;-63
2021/11/25 08:09:07;;;;;;;24.90;17.43;;;2.20;1.00;;;;;;5034087;28;20870;-64
2021/11/25 08:11:34;;;;;;;23.63;16.80;;;2.20;1.00;;;;;;5033554;28;20519;-64
2021/11/25 08:14:00;;;;;;;21.47;16.37;;;2.20;1.00;;;;;;5026511;28;20453;-63
2021/11/25 08:16:27;;;;;;;23.73;16.97;;;2.20;1.00;;;;;;5013818;28;20549;-64
2021/11/25 08:18:54;;;;;;;25.97;17.87;;;2.30;1.00;;;;;;5013997;28;20567;-64
2021/11/25 08:21:22;;;;;;;25.57;17.43;;;2.30;1.00;;;;;;5014371;28;20569;-63
2021/11/25 08:23:49;;;;;;;24.20;17.57;;;2.30;1.00;;;;;;5013884;28;20461;-63
2021/11/25 08:26:15;;;;;;;23.77;16.87;;;2.40;1.00;;;;;;5013498;28;20478;-63
2021/11/25 08:28:42;;;;;;;26.53;16.73;;;2.40;1.00;;;;;;5013464;28;20983;-64
2021/11/25 08:31:09;;;;;;;24.83;18.40;;;2.50;1.00;;;;;;5014439;28;20458;-62
2021/11/25 08:33:36;;;;;;;30.30;18.63;;;2.50;1.00;;;;;;5014879;28;20829;-65
2021/11/25 08:36:03;;;;;;;25.30;18.13;;;2.60;1.00;;;;;;5014543;28;20581;-61
2021/11/25 08:38:32;;;;;;;25.87;17.70;;;2.60;1.00;;;;;;5014019;28;20450;-64
2021/11/25 08:41:00;;;;;;;26.90;17.50;;;2.70;1.00;;;;;;5013030;28;20490;-63
2021/11/25 08:43:27;;;;;;;26.37;17.87;;;2.80;1.00;;;;;;5013648;28;20540;-64
2021/11/25 08:45:53;;;;;;;25.37;17.77;;;2.70;1.00;;;;;;5013333;28;20477;-63
2021/11/25 08:48:20;;;;;;;23.13;16.37;;;2.80;1.00;;;;;;5013506;28;20508;-64
2021/11/25 08:50:47;;;;;;;24.70;16.00;;;2.90;1.00;;;;;;5013756;28;20446;-64
2021/11/25 08:53:14;;;;;;;25.70;17.50;;;2.90;1.00;;;;;;5013075;28;20461;-64
2021/11/25 08:55:42;;;;;;;25.03;18.10;;;2.80;1.00;;;;;;5013274;28;20527;-64
2021/11/25 08:58:09;;;;;;;27.93;19.10;;;2.70;1.00;;;;;;5013242;28;20450;-64
2021/11/25 09:00:36;;;;;;;28.37;19.63;;;2.60;1.00;;;;;;5013063;28;20857;-64
2021/11/25 09:03:04;;;;;;;29.70;19.60;;;2.60;1.00;;;;;;5013264;28;20457;-65
2021/11/25 09:05:32;;;;;;;28.63;20.23;;;2.70;1.00;;;;;;5012616;28;20478;-63
2021/11/25 09:07:59;;;;;;;30.17;21.27;;;2.70;1.00;;;;;;5013363;28;20461;-62
2021/11/25 09:10:26;;;;;;;32.20;21.10;;;2.80;1.00;;;;;;5013062;28;20454;-61
2021/11/25 09:12:54;;;;;;;31.93;21.97;;;2.90;1.00;;;;;;5013226;28;20489;-63
2021/11/25 09:15:21;;;;;;;28.50;20.17;;;3.10;1.00;;;;;;5012741;28;21019;-60
2021/11/25 09:17:48;;;;;;;30.63;20.10;;;3.10;1.00;;;;;;5013113;28;20830;-60
2021/11/25 09:20:14;;;;;;;28.07;19.20;;;3.20;1.00;;;;;;5011908;28;21052;-60
2021/11/25 09:22:41;;;;;;;30.87;18.37;;;3.20;1.00;;;;;;5013093;28;20462;-60
2021/11/25 09:25:09;;;;;;;29.40;19.07;;;3.30;1.00;;;;;;5012843;28;20230;-60
2021/11/25 09:27:36;;;;;;;32.10;20.13;;;3.30;1.00;;;;;;5012844;28;20257;-61
2021/11/25 09:30:05;;;;;;;30.47;20.37;;;3.40;1.00;;;;;;5012897;28;20500;-61
2021/11/25 09:32:31;;;;;;;32.10;20.90;;;3.30;1.00;;;;;;5012828;28;20843;-61
2021/11/25 09:34:58;;;;;;;30.67;20.43;;;3.20;1.00;;;;;;5029615;28;20477;-62
2021/11/25 09:37:26;;;;;;;31.00;20.60;;;3.20;1.00;;;;;;5032499;28;20452;-60
2021/11/25 09:39:53;;;;;;;27.57;18.50;;;3.30;1.00;;;;;;5031947;28;20230;-58
2021/11/25 09:42:20;;;;;;;31.87;20.30;;;3.40;1.00;;;;;;5026264;28;20215;-62
2021/11/25 09:44:47;;;;;;;27.97;19.00;;;3.30;1.00;;;;;;5012031;28;20333;-63
2021/11/25 09:47:16;;;;;;;31.07;19.57;;;3.40;1.00;;;;;;5012465;28;20248;-63
2021/11/25 09:49:44;;;;;;;31.57;19.50;;;3.40;1.00;;;;;;5012406;28;20790;-63
2021/11/25 09:52:11;;;;;;;31.90;20.30;;;3.40;1.00;;;;;;5012437;28;20512;-62
2021/11/25 09:54:38;;;;;;;29.87;19.13;;;3.40;1.00;;;;;;5012073;28;20234;-63
2021/11/25 09:57:06;;;;;;;30.23;19.90;;;3.40;1.00;;;;;;5012266;28;20852;-63
2021/11/25 09:59:33;;;;;;;27.47;17.63;;;3.50;1.00;;;;;;5012126;28;20227;-63
2021/11/25 10:02:00;;;;;;;29.57;19.73;;;3.60;1.00;;;;;;5012096;28;20211;-63
2021/11/25 10:04:28;;;;;;;33.07;19.60;;;3.60;1.00;;;;;;5012329;28;20450;-61
2021/11/25 10:06:56;;;;;;;30.20;19.77;;;3.60;1.00;;;;;;5012211;28;20821;-62
2021/11/25 10:09:37;;;;;;;30.57;20.70;;;3.50;1.00;;;;;;5011670;28;20262;-63
2021/11/25 10:12:34;;;;;;;33.33;21.00;;;3.60;1.00;;;;;;5012511;28;20619;-64
2021/11/25 10:15:22;;;;;;;33.67;21.13;;;3.60;1.00;;;;;;5011938;28;20638;-63
2021/11/25 10:17:51;;;;;;;34.30;20.20;;;3.70;1.00;;;;;;5012234;28;20218;-64
2021/11/25 10:20:20;;;;;;;30.43;20.03;;;3.80;1.00;;;;;;5014408;28;20256;-63
2021/11/25 10:23:17;;;;;;;30.40;19.87;;;3.80;1.00;;;;;;5031614;28;20211;-63
2021/11/25 10:25:48;;;;;;;29.00;18.73;;;3.80;1.00;;;;;;5030136;28;20245;-64
2021/11/25 10:28:30;;;;;;;31.20;20.03;;;3.70;1.00;;;;;;5031562;28;20211;-64
2021/11/25 10:31:00;;;;;;;28.63;20.50;;;3.60;1.00;;;;;;5031437;28;20210;-63
2021/11/25 10:33:31;;;;;;;29.50;20.13;;;3.60;1.00;;;;;;5031577;28;20449;-62
2021/11/25 10:36:27;;;;;;;33.20;22.17;;;3.70;1.00;;;;;;5031181;28;20250;-62
2021/11/25 10:39:01;;;;;;;32.23;21.57;;;3.70;1.00;;;;;;5031299;28;20207;-63
2021/11/25 10:41:30;;;;;;;32.10;22.50;;;3.80;1.00;;;;;;5031033;28;20499;-62
2021/11/25 10:44:10;;;;;;;34.60;22.33;;;3.90;1.00;;;;;;5031644;28;20209;-62
2021/11/25 10:46:38;;;;;;;36.47;22.53;;;3.90;1.00;;;;;;5020184;28;20203;-64
2021/11/25 10:49:05;;;;;;;32.77;22.60;;;4.00;1.00;;;;;;5012030;28;20210;-62
2021/11/25 10:51:36;;;;;;;35.20;22.53;;;4.00;1.00;;;;;;5012495;28;20207;-63
2021/11/25 10:54:06;;;;;;;35.23;24.17;;;3.90;1.00;;;;;;5012430;28;20631;-63
2021/11/25 10:56:42;;;;;;;36.43;22.83;;;3.90;1.00;;;;;;5012025;28;20250;-64
2021/11/25 10:59:11;;;;;;;38.50;24.50;;;3.80;1.00;;;;;;5011877;28;20946;-63
2021/11/25 11:01:40;;;;;;;30.10;21.73;;;3.80;1.00;;;;;;5011819;28;20495;-63
2021/11/25 11:04:07;;;;;;;33.63;20.93;;;3.90;1.00;;;;;;5013219;28;20679;-61
2021/11/25 11:06:37;;;;;;;34.27;21.57;;;3.90;1.00;;;;;;5014858;28;20231;-63
2021/11/25 11:09:06;;;;;;;34.07;22.43;;;4.00;1.00;;;;;;5015209;28;20214;-66
2021/11/25 11:11:35;;;;;;;31.60;21.60;;;4.00;1.00;;;;;;5015751;28;20207;-64
2021/11/25 11:14:15;;;;;;;30.97;20.97;;;3.90;1.00;;;;;;5015462;28;20485;-64
2021/11/25 11:16:49;;;;;;;29.07;20.23;;;4.10;1.00;;;;;;5014971;28;20281;-62
2021/11/25 11:19:17;;;;;;;29.10;18.77;;;4.10;1.00;;;;;;5015213;28;20211;-67
2021/11/25 11:21:48;;;;;;;30.83;20.13;;;4.10;1.00;;;;;;5015418;28;20850;-67
2021/11/25 11:24:17;;;;;;;30.93;19.77;;;4.10;1.00;;;;;;5015084;28;20231;-66
2021/11/25 11:26:46;;;;;;;29.07;19.13;;;4.10;1.00;;;;;;5014817;28;20704;-64
2021/11/25 11:29:15;;;;;;;30.27;19.77;;;4.20;1.00;;;;;;5015027;28;20215;-65
2021/11/25 11:31:42;;;;;;;29.50;19.07;;;4.30;1.00;;;;;;5014605;28;20203;-64
2021/11/25 11:34:10;;;;;;;29.03;19.83;;;4.30;1.00;;;;;;5014969;28;20751;-64
2021/11/25 11:36:41;;;;;;;28.90;20.60;;;4.40;1.00;;;;;;5014677;28;20223;-64
2021/11/25 11:39:11;;;;;;;35.47;19.97;;;4.40;1.00;;;;;;5014228;28;20301;-63
2021/11/25 11:41:38;;;;;;;29.70;18.77;;;4.50;1.00;;;;;;5014772;28;20225;-66
2021/11/25 11:44:06;;;;;;;28.67;19.17;;;4.60;1.00;;;;;;5014442;28;20215;-64
2021/11/25 11:46:35;;;;;;;30.70;19.73;;;4.60;1.00;;;;;;5014595;28;20278;-63
2021/11/25 11:49:03;;;;;;;30.87;18.40;;;4.60;1.00;;;;;;5014358;28;20209;-63
2021/11/25 11:51:31;;;;;;;31.33;19.57;;;4.70;1.00;;;;;;5014579;28;20221;-66
2021/11/25 11:53:59;;;;;;;28.07;19.33;;;4.60;1.00;;;;;;5014599;28;20302;-65
2021/11/25 11:56:39;;;;;;;32.00;20.40;;;4.60;1.00;;;;;;5025968;28;20237;-62
2021/11/25 11:59:07;;;;;;;29.93;20.27;;;4.60;1.00;;;;;;5034170;28;20603;-62
2021/11/25 12:01:34;;;;;;;27.83;19.03;;;4.70;1.00;;;;;;5033937;28;20233;-64
2021/11/25 12:04:14;;;;;;;29.30;19.77;;;4.70;1.00;;;;;;5034266;28;20218;-64
2021/11/25 12:06:42;;;;;;;28.23;19.20;;;4.70;1.00;;;;;;5033927;28;20576;-64
2021/11/25 12:09:32;;;;;;;27.77;18.77;;;4.50;1.00;;;;;;5033708;28;20872;-64
2021/11/25 12:12:12;;;;;;;31.13;20.13;;;4.60;1.00;;;;;;5033883;28;20204;-62
2021/11/25 12:14:49;;;;;;;32.07;19.43;;;4.50;1.00;;;;;;5033430;28;20227;-59
2021/11/25 12:17:26;;;;;;;30.37;20.00;;;4.50;1.00;;;;;;5032875;28;20215;-63
2021/11/25 12:19:53;;;;;;;30.23;20.10;;;4.50;1.00;;;;;;5033759;28;20246;-63
2021/11/25 12:22:22;;;;;;;28.43;19.70;;;4.50;1.00;;;;;;5033519;28;20220;-62
2021/11/25 12:24:54;;;;;;;30.50;18.37;;;4.60;1.00;;;;;;5033200;28;20255;-62
2021/11/25 12:27:32;;;;;;;30.83;19.73;;;4.60;1.00;;;;;;5033655;28;20209;-66
2021/11/25 12:30:10;;;;;;;36.83;20.97;;;4.50;99.90;;;;;;5033313;28;20290;-63
2021/11/25 12:32:48;;;;;;;29.80;19.60;;;4.50;99.90;;;;;;5034036;28;20203;-62
2021/11/25 12:35:41;;;;;;;30.67;20.07;;;4.50;1.00;;;;;;5033051;28;20233;-59
2021/11/25 12:38:11;;;;;;;34.60;20.83;;;4.50;1.00;;;;;;5033121;28;20245;-62
2021/11/25 12:40:44;;;;;;;31.37;19.57;;;4.50;1.00;;;;;;5033318;28;20821;-61
2021/11/25 12:43:14;;;;;;;32.33;21.00;;;4.60;1.00;;;;;;5033528;28;20209;-62
2021/11/25 12:45:43;;;;;;;33.27;20.73;;;4.70;1.00;;;;;;5033532;28;20256;-65
2021/11/25 12:48:28;;;;;;;28.67;19.67;;;4.70;1.00;;;;;;5033281;28;20209;-64
2021/11/25 12:50:59;;;;;;;31.20;19.93;;;4.70;1.00;;;;;;5033475;28;20290;-65
2021/11/25 12:53:29;;;;;;;31.03;19.33;;;4.70;1.00;;;;;;5033361;28;20208;-65
2021/11/25 12:56:01;;;;;;;30.37;19.17;;;4.80;1.00;;;;;;5033195;28;20327;-63
2021/11/25 12:58:34;;;;;;;32.00;19.00;;;4.70;1.00;;;;;;5033155;28;20220;-63
2021/11/25 13:01:02;;;;;;;32.63;19.00;;;4.70;1.00;;;;;;5032821;28;20234;-63